createdAt,value
2022-12-03T05:15:37.584Z,7.28
2022-12-03T05:18:04.125Z,9.07
2022-12-03T05:20:45.698Z,7.25
2022-12-03T05:23:16.218Z,10.05
2022-12-03T05:25:42.745Z,7.00
2022-12-03T05:28:09.234Z,8.85
2022-12-03T05:30:35.893Z,9.40
2022-12-03T05:33:02.608Z,7.93
2022-12-03T05:35:29.132Z,8.98
2022-12-03T05:37:55.585Z,8.02
2022-12-03T05:40:22.237Z,9.20
2022-12-03T05:42:54.745Z,5.57
2022-12-03T05:45:32.743Z,7.30
2022-12-03T05:48:00.333Z,8.30
2022-12-03T05:50:31.589Z,8.15
2022-12-03T05:52:58.605Z,7.63
2022-12-03T05:55:26.269Z,9.43
2022-12-03T05:57:53.025Z,7.40
2022-12-03T06:00:25.742Z,9.32
2022-12-03T06:02:53.325Z,10.63
2022-12-03T06:05:20.676Z,7.30
2022-12-03T06:07:49.323Z,12.35
2022-12-03T06:10:19.248Z,8.85
2022-12-03T06:12:45.923Z,10.27
2022-12-03T06:15:14.043Z,9.77
2022-12-03T06:17:41.210Z,7.30
2022-12-03T06:20:13.925Z,10.32
2022-12-03T06:22:40.562Z,7.47
2022-12-03T06:25:07.677Z,9.38
2022-12-03T06:27:34.196Z,9.80
2022-12-03T06:30:00.642Z,9.30
2022-12-03T06:32:27.052Z,10.65
2022-12-03T06:34:53.714Z,7.05
2022-12-03T06:37:20.338Z,8.32
2022-12-03T06:39:46.847Z,8.70
2022-12-03T06:42:13.298Z,10.05
2022-12-03T06:44:39.751Z,9.05
2022-12-03T06:47:06.272Z,12.70
2022-12-03T06:49:32.951Z,7.93
2022-12-03T06:51:59.412Z,9.23
2022-12-03T06:54:25.904Z,10.75
2022-12-03T06:56:52.364Z,8.38
2022-12-03T06:59:18.802Z,9.43
2022-12-03T07:01:45.365Z,9.25
2022-12-03T07:04:12.086Z,11.77
2022-12-03T07:06:44.694Z,10.55
2022-12-03T07:09:11.253Z,10.25
2022-12-03T07:11:40.599Z,10.85
2022-12-03T07:14:08.819Z,8.75
2022-12-03T07:16:36.100Z,6.47
2022-12-03T07:19:04.798Z,10.30
2022-12-03T07:21:31.649Z,10.15
2022-12-03T07:24:03.364Z,8.20
2022-12-03T07:26:29.864Z,9.55
2022-12-03T07:28:56.333Z,9.45
2022-12-03T07:31:23.128Z,9.50
2022-12-03T07:33:49.600Z,10.13
2022-12-03T07:36:16.063Z,11.75
2022-12-03T07:38:42.602Z,9.90
2022-12-03T07:41:09.259Z,9.65
2022-12-03T07:43:36.735Z,10.88
2022-12-03T07:46:03.272Z,10.00
2022-12-03T07:48:29.783Z,8.82
2022-12-03T07:50:56.277Z,8.88
2022-12-03T07:53:22.789Z,9.45
2022-12-03T07:55:49.253Z,11.55
2022-12-03T07:58:22.920Z,10.68
2022-12-03T08:00:49.400Z,9.40
2022-12-03T08:03:15.913Z,13.30
2022-12-03T08:05:42.414Z,12.15
2022-12-03T08:08:08.895Z,14.32
2022-12-03T08:10:35.379Z,10.80
2022-12-03T08:13:06.638Z,10.13
2022-12-03T08:15:39.036Z,12.60
2022-12-03T08:18:32.855Z,11.18
2022-12-03T08:20:59.430Z,11.88
2022-12-03T08:23:27.810Z,11.75
2022-12-03T08:25:54.330Z,13.98
2022-12-03T08:28:23.642Z,13.25
2022-12-03T08:31:19.906Z,12.10
2022-12-03T08:33:49.318Z,13.43
2022-12-03T08:36:23.064Z,11.93
2022-12-03T08:38:52.470Z,12.13
2022-12-03T08:41:40.761Z,10.57
2022-12-03T08:44:28.947Z,11.85
2022-12-03T08:47:02.139Z,14.40
2022-12-03T08:49:28.579Z,12.20
2022-12-03T08:51:59.726Z,13.32
2022-12-03T08:54:27.489Z,14.15
2022-12-03T08:56:54.599Z,11.30
2022-12-03T08:59:30.563Z,13.00
2022-12-03T09:01:58.503Z,12.93
2022-12-03T09:04:45.155Z,11.93
2022-12-03T09:07:11.735Z,12.45
2022-12-03T09:09:39.270Z,15.90
2022-12-03T09:12:05.977Z,16.00
2022-12-03T09:14:32.388Z,14.10
2022-12-03T09:16:58.903Z,16.25
2022-12-03T09:19:27.247Z,15.68
2022-12-03T09:21:55.803Z,15.18
2022-12-03T09:24:22.584Z,13.75
2022-12-03T09:26:49.523Z,17.58
2022-12-03T09:29:15.962Z,16.42
2022-12-03T09:31:42.497Z,16.75
2022-12-03T09:34:11.093Z,15.18
2022-12-03T09:36:37.850Z,20.02
2022-12-03T09:39:04.702Z,20.90
2022-12-03T09:41:31.333Z,18.65
2022-12-03T09:44:05.855Z,15.25
2022-12-03T09:46:36.250Z,19.08
2022-12-03T09:49:06.070Z,18.35
2022-12-03T09:51:36.580Z,21.00
2022-12-03T09:54:05.641Z,15.55
2022-12-03T09:56:37.637Z,16.02
2022-12-03T09:59:14.015Z,19.88
2022-12-03T10:01:40.613Z,20.48
2022-12-03T10:04:07.604Z,20.15
2022-12-03T10:06:34.144Z,16.20
2022-12-03T10:09:00.821Z,15.82
2022-12-03T10:11:29.758Z,18.50
2022-12-03T10:13:58.578Z,17.77
2022-12-03T10:16:25.777Z,21.63
2022-12-03T10:18:55.136Z,19.05
2022-12-03T10:21:34.731Z,16.02
2022-12-03T10:24:20.434Z,19.23
2022-12-03T10:26:48.526Z,19.13
2022-12-03T10:29:19.347Z,20.30
2022-12-03T10:31:53.825Z,21.20
2022-12-03T10:34:27.511Z,21.98
2022-12-03T10:37:10.362Z,18.80
2022-12-03T10:39:58.403Z,24.25
2022-12-03T10:42:34.025Z,17.90
2022-12-03T10:45:21.034Z,19.85
2022-12-03T10:48:27.480Z,18.23
2022-12-03T10:50:56.818Z,20.75
2022-12-03T10:53:28.423Z,22.92
2022-12-03T10:55:59.590Z,21.70
2022-12-03T10:58:29.226Z,26.42
2022-12-03T11:00:58.792Z,20.30
2022-12-03T11:03:27.795Z,19.50
2022-12-03T11:05:55.980Z,18.80
2022-12-03T11:08:27.817Z,23.52
2022-12-03T11:11:03.798Z,22.35
2022-12-03T11:13:44.743Z,22.08
2022-12-03T11:16:12.274Z,19.27
2022-12-03T11:18:44.135Z,20.05
2022-12-03T11:21:12.983Z,22.55
2022-12-03T11:23:45.661Z,20.65
2022-12-03T11:26:18.639Z,20.70
2022-12-03T11:28:46.000Z,24.15
2022-12-03T11:31:42.302Z,22.50
2022-12-03T11:34:17.874Z,24.08
2022-12-03T11:37:09.378Z,18.83
2022-12-03T11:39:45.376Z,21.05
2022-12-03T11:42:25.268Z,20.75
2022-12-03T11:45:04.053Z,23.73
2022-12-03T11:47:39.536Z,20.55
2022-12-03T11:50:21.362Z,23.05
2022-12-03T11:53:07.474Z,22.52
2022-12-03T11:55:37.891Z,24.75
2022-12-03T11:58:14.851Z,27.73
2022-12-03T12:00:51.997Z,18.88
2022-12-03T12:03:29.576Z,22.70
2022-12-03T12:06:09.989Z,22.40
2022-12-03T12:08:42.294Z,23.33
2022-12-03T12:11:34.961Z,20.27
2022-12-03T12:14:06.000Z,22.23
2022-12-03T12:16:55.922Z,24.08
2022-12-03T12:19:35.358Z,20.15
2022-12-03T12:22:29.667Z,23.35
2022-12-03T12:25:01.375Z,19.92
2022-12-03T12:27:35.449Z,18.88
2022-12-03T12:30:18.385Z,20.98
2022-12-03T12:32:54.015Z,25.27
2022-12-03T12:35:27.760Z,24.95
2022-12-03T12:38:06.489Z,23.42
2022-12-03T12:40:35.640Z,19.85
2022-12-03T12:43:15.253Z,23.73
2022-12-03T12:45:43.676Z,19.85
2022-12-03T12:48:10.140Z,20.20
2022-12-03T12:50:38.230Z,19.00
2022-12-03T12:53:11.173Z,21.83
2022-12-03T12:55:38.632Z,20.10
2022-12-03T12:58:15.094Z,21.45
2022-12-03T13:00:42.591Z,22.65
2022-12-03T13:03:12.663Z,22.98
2022-12-03T13:05:42.296Z,22.10
2022-12-03T13:08:28.517Z,21.60
2022-12-03T13:10:59.724Z,19.20
2022-12-03T13:13:29.208Z,20.45
2022-12-03T13:16:06.968Z,23.33
2022-12-03T13:18:56.267Z,27.52
2022-12-03T13:21:32.811Z,23.33
2022-12-03T13:24:00.697Z,17.58
2022-12-03T13:26:39.824Z,22.30
2022-12-03T13:29:13.487Z,21.15
2022-12-03T13:31:44.113Z,20.00
2022-12-03T13:34:19.348Z,22.80
2022-12-03T13:36:52.009Z,22.60
2022-12-03T13:39:30.080Z,21.90
2022-12-03T13:42:16.394Z,19.90
2022-12-03T13:44:45.806Z,21.65
2022-12-03T13:47:20.685Z,22.52
2022-12-03T13:49:57.164Z,22.10
2022-12-03T13:52:25.604Z,22.23
2022-12-03T13:54:55.025Z,20.27
2022-12-03T13:57:22.005Z,22.20
2022-12-03T13:59:48.633Z,23.70
2022-12-03T14:02:15.264Z,20.73
2022-12-03T14:04:41.956Z,22.40
2022-12-03T14:07:29.045Z,25.50
2022-12-03T14:09:56.070Z,18.98
2022-12-03T14:12:25.716Z,20.00
2022-12-03T14:14:52.890Z,24.47
2022-12-03T14:17:19.426Z,19.77
2022-12-03T14:19:53.247Z,20.50
2022-12-03T14:22:23.653Z,22.50
2022-12-03T14:24:50.955Z,21.20
2022-12-03T14:27:20.407Z,21.42
2022-12-03T14:29:47.047Z,22.75
2022-12-03T14:32:13.905Z,20.65
2022-12-03T14:34:40.488Z,20.85
2022-12-03T14:37:07.068Z,19.05
2022-12-03T14:39:33.706Z,21.60
2022-12-03T14:42:15.575Z,17.48
2022-12-03T14:44:52.240Z,22.75
2022-12-03T14:47:22.565Z,24.05
2022-12-03T14:49:49.617Z,19.77
2022-12-03T14:52:16.154Z,19.10
2022-12-03T14:54:43.173Z,24.92
2022-12-03T14:57:12.582Z,18.98
2022-12-03T14:59:43.236Z,21.00
2022-12-03T15:02:10.890Z,21.92
2022-12-03T15:04:38.243Z,18.52
2022-12-03T15:07:05.721Z,22.70
2022-12-03T15:09:32.441Z,20.92
2022-12-03T15:12:00.263Z,23.70
2022-12-03T15:14:27.027Z,24.35
2022-12-03T15:16:53.594Z,21.60
2022-12-03T15:19:20.189Z,26.35
2022-12-03T15:21:46.717Z,25.42
2022-12-03T15:24:13.323Z,19.08
2022-12-03T15:26:39.861Z,22.20
2022-12-03T15:29:06.363Z,20.25
2022-12-03T15:31:33.058Z,24.10
2022-12-03T15:33:59.759Z,24.40
2022-12-03T15:36:26.951Z,22.10
2022-12-03T15:38:53.611Z,25.25
2022-12-03T15:41:29.628Z,23.48
2022-12-03T15:43:58.338Z,21.80
2022-12-03T15:46:25.416Z,22.42
2022-12-03T15:48:52.627Z,23.98
2022-12-03T15:51:19.140Z,23.30
2022-12-03T15:53:45.976Z,21.10
2022-12-03T15:56:13.148Z,28.38
2022-12-03T15:58:40.733Z,20.65
2022-12-03T16:01:08.319Z,23.10
2022-12-03T16:03:37.404Z,21.67
2022-12-03T16:06:04.227Z,18.48
2022-12-03T16:08:31.029Z,25.23
2022-12-03T16:11:56.407Z,23.27
2022-12-03T16:14:23.277Z,22.63
2022-12-03T16:16:59.061Z,23.70
2022-12-03T16:19:29.126Z,18.50
2022-12-03T16:21:57.582Z,23.98
2022-12-03T16:24:24.658Z,22.83
2022-12-03T16:26:51.232Z,22.42
2022-12-03T16:29:17.961Z,30.85
2022-12-03T16:31:46.044Z,23.65
2022-12-03T16:34:18.742Z,24.27
2022-12-03T16:37:13.202Z,28.17
2022-12-03T16:39:47.554Z,22.27
2022-12-03T16:42:17.281Z,24.13
2022-12-03T16:44:59.346Z,23.95
2022-12-03T16:47:30.586Z,23.27
2022-12-03T16:50:21.837Z,22.20
2022-12-03T16:52:54.120Z,24.88
2022-12-03T16:55:20.781Z,20.98
2022-12-03T16:57:47.242Z,24.38
2022-12-03T17:00:14.354Z,28.25
2022-12-03T17:02:41.002Z,23.23
2022-12-03T17:05:08.073Z,26.10
2022-12-03T17:07:34.711Z,25.92
2022-12-03T17:10:01.339Z,24.60
2022-12-03T17:12:42.292Z,28.73
2022-12-03T17:15:14.523Z,23.00
2022-12-03T17:17:41.028Z,22.63
2022-12-03T17:20:08.368Z,21.77
2022-12-03T17:22:35.351Z,23.98
2022-12-03T17:25:01.990Z,27.27
2022-12-03T17:27:29.571Z,23.17
2022-12-03T17:29:56.285Z,26.95
2022-12-03T17:32:22.835Z,26.08
2022-12-03T17:34:49.308Z,28.90
2022-12-03T17:37:15.761Z,23.65
2022-12-03T17:39:42.218Z,24.48
2022-12-03T17:42:08.645Z,28.95
2022-12-03T17:44:35.128Z,26.73
2022-12-03T17:47:01.698Z,25.95
2022-12-03T17:49:31.573Z,24.65
2022-12-03T17:51:58.428Z,29.42
2022-12-03T17:54:34.110Z,29.17
2022-12-03T17:57:11.461Z,21.17
2022-12-03T17:59:37.910Z,24.50
2022-12-03T18:02:04.512Z,20.48
2022-12-03T18:04:31.231Z,24.55
2022-12-03T18:07:02.332Z,26.15
2022-12-03T18:09:29.185Z,25.60
2022-12-03T18:11:55.684Z,25.33
2022-12-03T18:14:22.107Z,30.17
2022-12-03T18:16:48.608Z,24.10
2022-12-03T18:19:15.117Z,27.30
2022-12-03T18:21:41.590Z,22.52
2022-12-03T18:24:08.405Z,24.02
2022-12-03T18:26:35.648Z,23.10
2022-12-03T18:29:02.091Z,25.27
2022-12-03T18:31:28.663Z,29.98
2022-12-03T18:33:55.197Z,22.88
2022-12-03T18:36:33.501Z,24.52
2022-12-03T18:39:01.003Z,23.30
2022-12-03T18:41:27.742Z,26.73
2022-12-03T18:43:54.560Z,26.23
2022-12-03T18:49:09.744Z,21.75
2022-12-03T18:51:36.521Z,24.60
2022-12-03T18:54:03.216Z,22.58
2022-12-03T18:56:29.688Z,21.05
2022-12-03T18:58:56.221Z,25.40
2022-12-03T19:01:23.082Z,24.42
2022-12-03T19:03:50.308Z,22.45
2022-12-03T19:06:21.017Z,25.92
2022-12-03T19:08:54.084Z,22.02
2022-12-03T19:11:21.738Z,23.73
2022-12-03T19:13:48.486Z,22.92
2022-12-03T19:16:17.023Z,22.63
2022-12-03T19:18:44.580Z,21.20
2022-12-03T19:21:14.071Z,21.55
2022-12-03T19:23:40.607Z,24.30
2022-12-03T19:26:09.594Z,24.02
2022-12-03T19:28:36.484Z,30.02
2022-12-03T19:31:06.231Z,24.73
2022-12-03T19:33:33.853Z,27.05
2022-12-03T19:36:02.507Z,24.90
2022-12-03T19:38:30.175Z,23.73
2022-12-03T19:41:02.802Z,21.15
2022-12-03T19:43:31.643Z,25.20
2022-12-03T19:46:10.091Z,25.67
2022-12-03T19:48:38.989Z,26.88
2022-12-03T19:51:32.547Z,31.08
2022-12-03T19:53:53.786Z,28.27
2022-12-03T19:56:20.288Z,24.58
2022-12-03T19:58:47.123Z,22.83
2022-12-03T20:01:16.878Z,22.35
2022-12-03T20:03:45.967Z,19.05
2022-12-03T20:06:14.687Z,22.92
2022-12-03T20:08:41.630Z,22.65
2022-12-03T20:11:09.250Z,23.27
2022-12-03T20:13:36.674Z,24.17
2022-12-03T20:16:08.705Z,20.17
2022-12-03T20:18:37.647Z,24.67
2022-12-03T20:21:04.208Z,23.33
2022-12-03T20:23:30.649Z,23.13
2022-12-03T20:25:57.544Z,28.60
2022-12-03T20:28:24.758Z,22.58
2022-12-03T20:31:02.766Z,23.67
2022-12-03T20:33:29.688Z,23.80
2022-12-03T20:35:56.960Z,21.35
2022-12-03T20:38:24.535Z,24.52
2022-12-03T20:41:04.918Z,21.15
2022-12-03T20:43:31.606Z,27.08
2022-12-03T20:46:19.059Z,32.97
2022-12-03T20:48:46.030Z,28.55
2022-12-03T20:51:16.202Z,33.78
2022-12-03T20:53:43.610Z,42.13
2022-12-03T20:56:10.578Z,39.28
2022-12-03T20:58:37.420Z,27.58
2022-12-03T21:01:15.669Z,26.58
2022-12-03T21:03:43.324Z,21.95
2022-12-03T21:06:10.280Z,24.55
2022-12-03T21:08:41.613Z,21.83
2022-12-03T21:11:11.836Z,22.63
2022-12-03T21:13:41.492Z,19.52
2022-12-03T21:16:10.619Z,21.13
2022-12-03T21:18:37.234Z,23.15
2022-12-03T21:21:03.981Z,23.98
2022-12-03T21:23:31.992Z,21.88
2022-12-03T21:26:07.828Z,25.38
2022-12-03T21:28:34.545Z,24.38
2022-12-03T21:31:06.786Z,24.08
2022-12-03T21:33:34.034Z,25.17
2022-12-03T21:36:00.990Z,19.45
2022-12-03T21:38:28.820Z,20.38
2022-12-03T21:40:56.276Z,22.40
2022-12-03T21:43:23.159Z,20.35
2022-12-03T21:45:49.951Z,23.17
2022-12-03T21:48:17.366Z,21.17
2022-12-03T21:50:44.466Z,20.48
2022-12-03T21:53:11.198Z,22.60
2022-12-03T21:55:41.305Z,21.48
2022-12-03T21:58:08.752Z,19.58
2022-12-03T22:00:35.675Z,22.10
2022-12-03T22:03:02.247Z,26.67
2022-12-03T22:05:28.799Z,18.10
2022-12-03T22:07:55.293Z,23.58
2022-12-03T22:10:21.839Z,19.77
2022-12-03T22:12:48.287Z,21.95
2022-12-03T22:15:18.745Z,22.95
2022-12-03T22:17:45.901Z,24.15
2022-12-03T22:20:15.859Z,16.88
2022-12-03T22:22:42.304Z,17.50
2022-12-03T22:25:08.951Z,21.08
2022-12-03T22:27:35.619Z,15.88
2022-12-03T22:30:03.142Z,18.83
2022-12-03T22:32:29.652Z,25.83
2022-12-03T22:34:56.138Z,20.05
2022-12-03T22:37:22.881Z,17.60
2022-12-03T22:39:49.339Z,14.55
2022-12-03T22:42:15.792Z,19.67
2022-12-03T22:44:42.277Z,16.35
2022-12-03T22:47:08.917Z,16.80
2022-12-03T22:49:35.409Z,18.38
2022-12-03T22:52:02.071Z,18.52
2022-12-03T22:54:28.691Z,15.48
2022-12-03T22:56:55.249Z,18.77
2022-12-03T22:59:21.773Z,22.75
